sensor_id;sensor_type;location;lat;lon;timestamp;P1;durP1;ratioP1;P2;durP2;ratioP2
47958;SDS011;33718;50.910;-1.514;2023-12-14T00:00:47;10.00;;;1.70;;
47958;SDS011;33718;50.910;-1.514;2023-12-14T00:02:48;8.15;;;1.73;;
47958;SDS011;33718;50.910;-1.514;2023-12-14T00:04:50;7.38;;;2.90;;
47958;SDS011;33718;50.910;-1.514;2023-12-14T00:06:52;8.30;;;2.30;;
47958;SDS011;33718;50.910;-1.514;2023-12-14T00:08:53;10.07;;;2.42;;
47958;SDS011;33718;50.910;-1.514;2023-12-14T00:10:55;10.88;;;2.55;;
47958;SDS011;33718;50.910;-1.514;2023-12-14T00:12:57;10.45;;;1.95;;
47958;SDS011;33718;50.910;-1.514;2023-12-14T00:14:58;4.35;;;2.30;;
47958;SDS011;33718;50.910;-1.514;2023-12-14T00:17:00;5.28;;;1.77;;
47958;SDS011;33718;50.910;-1.514;2023-12-14T00:19:01;6.40;;;2.33;;
47958;SDS011;33718;50.910;-1.514;2023-12-14T00:21:04;13.82;;;2.25;;
47958;SDS011;33718;50.910;-1.514;2023-12-14T00:23:06;11.02;;;1.98;;
47958;SDS011;33718;50.910;-1.514;2023-12-14T00:25:07;6.53;;;1.95;;
47958;SDS011;33718;50.910;-1.514;2023-12-14T00:27:09;5.82;;;2.05;;
47958;SDS011;33718;50.910;-1.514;2023-12-14T00:29:10;7.82;;;2.05;;
47958;SDS011;33718;50.910;-1.514;2023-12-14T00:31:31;10.70;;;3.00;;
47958;SDS011;33718;50.910;-1.514;2023-12-14T00:33:32;8.70;;;2.58;;
47958;SDS011;33718;50.910;-1.514;2023-12-14T00:35:34;9.70;;;2.40;;
47958;SDS011;33718;50.910;-1.514;2023-12-14T00:37:35;11.43;;;2.33;;
47958;SDS011;33718;50.910;-1.514;2023-12-14T00:39:37;9.27;;;1.88;;
47958;SDS011;33718;50.910;-1.514;2023-12-14T00:41:39;10.02;;;2.25;;
47958;SDS011;33718;50.910;-1.514;2023-12-14T00:43:40;3.83;;;2.00;;
47958;SDS011;33718;50.910;-1.514;2023-12-14T00:45:42;9.18;;;2.90;;
47958;SDS011;33718;50.910;-1.514;2023-12-14T00:47:43;11.75;;;2.47;;
47958;SDS011;33718;50.910;-1.514;2023-12-14T00:49:45;5.80;;;3.55;;
47958;SDS011;33718;50.910;-1.514;2023-12-14T00:51:46;7.78;;;2.30;;
47958;SDS011;33718;50.910;-1.514;2023-12-14T00:53:48;10.82;;;2.40;;
47958;SDS011;33718;50.910;-1.514;2023-12-14T00:56:08;11.13;;;2.47;;
47958;SDS011;33718;50.910;-1.514;2023-12-14T00:58:10;9.65;;;2.15;;
47958;SDS011;33718;50.910;-1.514;2023-12-14T01:00:14;16.30;;;3.25;;
47958;SDS011;33718;50.910;-1.514;2023-12-14T01:02:15;7.82;;;2.33;;
47958;SDS011;33718;50.910;-1.514;2023-12-14T01:04:17;9.50;;;3.13;;
47958;SDS011;33718;50.910;-1.514;2023-12-14T01:06:18;3.50;;;1.92;;
47958;SDS011;33718;50.910;-1.514;2023-12-14T01:08:20;5.85;;;2.80;;
47958;SDS011;33718;50.910;-1.514;2023-12-14T01:12:54;8.25;;;2.63;;
47958;SDS011;33718;50.910;-1.514;2023-12-14T01:14:56;9.38;;;2.78;;
47958;SDS011;33718;50.910;-1.514;2023-12-14T01:16:57;8.32;;;2.60;;
47958;SDS011;33718;50.910;-1.514;2023-12-14T01:18:59;9.73;;;3.33;;
47958;SDS011;33718;50.910;-1.514;2023-12-14T01:21:19;11.45;;;3.58;;
47958;SDS011;33718;50.910;-1.514;2023-12-14T01:23:21;8.75;;;3.30;;
47958;SDS011;33718;50.910;-1.514;2023-12-14T01:25:23;9.90;;;3.55;;
47958;SDS011;33718;50.910;-1.514;2023-12-14T01:27:43;12.23;;;3.38;;
47958;SDS011;33718;50.910;-1.514;2023-12-14T01:29:44;14.27;;;3.85;;
47958;SDS011;33718;50.910;-1.514;2023-12-14T01:31:46;5.28;;;2.92;;
47958;SDS011;33718;50.910;-1.514;2023-12-14T01:33:48;7.80;;;2.97;;
47958;SDS011;33718;50.910;-1.514;2023-12-14T01:35:49;6.40;;;3.42;;
47958;SDS011;33718;50.910;-1.514;2023-12-14T01:38:10;6.78;;;2.70;;
47958;SDS011;33718;50.910;-1.514;2023-12-14T01:40:12;12.70;;;3.53;;
47958;SDS011;33718;50.910;-1.514;2023-12-14T01:42:14;13.13;;;4.05;;
47958;SDS011;33718;50.910;-1.514;2023-12-14T01:44:15;9.95;;;3.08;;
47958;SDS011;33718;50.910;-1.514;2023-12-14T01:46:17;5.78;;;2.78;;
47958;SDS011;33718;50.910;-1.514;2023-12-14T01:48:19;11.93;;;3.22;;
47958;SDS011;33718;50.910;-1.514;2023-12-14T01:50:21;9.85;;;3.20;;
47958;SDS011;33718;50.910;-1.514;2023-12-14T01:52:22;14.73;;;3.15;;
47958;SDS011;33718;50.910;-1.514;2023-12-14T01:54:24;10.45;;;4.03;;
47958;SDS011;33718;50.910;-1.514;2023-12-14T01:56:26;10.70;;;3.17;;
47958;SDS011;33718;50.910;-1.514;2023-12-14T01:58:46;8.10;;;3.17;;
47958;SDS011;33718;50.910;-1.514;2023-12-14T02:02:49;7.18;;;3.13;;
47958;SDS011;33718;50.910;-1.514;2023-12-14T02:05:09;9.60;;;2.97;;
47958;SDS011;33718;50.910;-1.514;2023-12-14T02:07:11;14.68;;;3.90;;
47958;SDS011;33718;50.910;-1.514;2023-12-14T02:09:31;7.55;;;3.10;;
47958;SDS011;33718;50.910;-1.514;2023-12-14T02:11:51;11.80;;;3.28;;
47958;SDS011;33718;50.910;-1.514;2023-12-14T02:13:53;11.85;;;3.53;;
47958;SDS011;33718;50.910;-1.514;2023-12-14T02:15:55;11.25;;;3.13;;
47958;SDS011;33718;50.910;-1.514;2023-12-14T02:17:56;8.98;;;3.20;;
47958;SDS011;33718;50.910;-1.514;2023-12-14T02:19:58;9.48;;;2.75;;
47958;SDS011;33718;50.910;-1.514;2023-12-14T02:22:20;13.98;;;3.15;;
47958;SDS011;33718;50.910;-1.514;2023-12-14T02:24:21;10.77;;;2.97;;
47958;SDS011;33718;50.910;-1.514;2023-12-14T02:26:23;10.07;;;2.97;;
47958;SDS011;33718;50.910;-1.514;2023-12-14T02:28:24;9.00;;;2.55;;
47958;SDS011;33718;50.910;-1.514;2023-12-14T02:30:26;14.65;;;3.17;;
47958;SDS011;33718;50.910;-1.514;2023-12-14T02:32:28;7.85;;;3.38;;
47958;SDS011;33718;50.910;-1.514;2023-12-14T02:34:29;8.68;;;3.03;;
47958;SDS011;33718;50.910;-1.514;2023-12-14T02:36:31;8.30;;;3.30;;
47958;SDS011;33718;50.910;-1.514;2023-12-14T02:38:33;11.00;;;2.80;;
47958;SDS011;33718;50.910;-1.514;2023-12-14T02:40:34;11.80;;;3.10;;
47958;SDS011;33718;50.910;-1.514;2023-12-14T02:42:36;5.82;;;3.30;;
47958;SDS011;33718;50.910;-1.514;2023-12-14T02:44:38;11.57;;;3.75;;
47958;SDS011;33718;50.910;-1.514;2023-12-14T02:46:40;6.80;;;2.85;;
47958;SDS011;33718;50.910;-1.514;2023-12-14T02:48:41;8.95;;;3.38;;
47958;SDS011;33718;50.910;-1.514;2023-12-14T02:50:45;23.27;;;4.73;;
47958;SDS011;33718;50.910;-1.514;2023-12-14T02:52:46;19.00;;;3.95;;
47958;SDS011;33718;50.910;-1.514;2023-12-14T02:54:48;13.63;;;4.05;;
47958;SDS011;33718;50.910;-1.514;2023-12-14T02:57:08;11.00;;;2.83;;
47958;SDS011;33718;50.910;-1.514;2023-12-14T02:59:28;8.13;;;3.97;;
47958;SDS011;33718;50.910;-1.514;2023-12-14T03:01:29;4.97;;;2.42;;
47958;SDS011;33718;50.910;-1.514;2023-12-14T03:03:31;8.43;;;3.20;;
47958;SDS011;33718;50.910;-1.514;2023-12-14T03:05:51;12.30;;;3.25;;
47958;SDS011;33718;50.910;-1.514;2023-12-14T03:08:14;10.68;;;3.10;;
47958;SDS011;33718;50.910;-1.514;2023-12-14T03:10:16;12.82;;;4.05;;
47958;SDS011;33718;50.910;-1.514;2023-12-14T03:12:17;10.27;;;2.80;;
47958;SDS011;33718;50.910;-1.514;2023-12-14T03:14:19;10.00;;;2.90;;
47958;SDS011;33718;50.910;-1.514;2023-12-14T03:16:21;7.32;;;2.75;;
47958;SDS011;33718;50.910;-1.514;2023-12-14T03:18:22;6.70;;;3.17;;
47958;SDS011;33718;50.910;-1.514;2023-12-14T03:20:24;8.70;;;3.13;;
47958;SDS011;33718;50.910;-1.514;2023-12-14T03:22:26;13.13;;;3.90;;
47958;SDS011;33718;50.910;-1.514;2023-12-14T03:24:27;11.55;;;3.40;;
47958;SDS011;33718;50.910;-1.514;2023-12-14T03:26:29;14.15;;;3.33;;
47958;SDS011;33718;50.910;-1.514;2023-12-14T03:28:30;10.95;;;3.38;;
47958;SDS011;33718;50.910;-1.514;2023-12-14T03:30:51;13.00;;;3.83;;
47958;SDS011;33718;50.910;-1.514;2023-12-14T03:32:52;8.88;;;3.00;;
47958;SDS011;33718;50.910;-1.514;2023-12-14T03:35:12;6.85;;;3.17;;
47958;SDS011;33718;50.910;-1.514;2023-12-14T03:37:14;8.15;;;3.22;;
47958;SDS011;33718;50.910;-1.514;2023-12-14T03:39:16;8.73;;;4.20;;
47958;SDS011;33718;50.910;-1.514;2023-12-14T03:41:38;10.45;;;3.40;;
47958;SDS011;33718;50.910;-1.514;2023-12-14T03:43:40;6.25;;;2.90;;
47958;SDS011;33718;50.910;-1.514;2023-12-14T03:45:42;10.10;;;3.53;;
47958;SDS011;33718;50.910;-1.514;2023-12-14T03:48:02;14.20;;;4.45;;
47958;SDS011;33718;50.910;-1.514;2023-12-14T03:50:22;11.70;;;4.97;;
47958;SDS011;33718;50.910;-1.514;2023-12-14T03:52:24;13.80;;;3.80;;
47958;SDS011;33718;50.910;-1.514;2023-12-14T03:54:27;8.63;;;3.28;;
47958;SDS011;33718;50.910;-1.514;2023-12-14T03:56:28;7.30;;;2.83;;
47958;SDS011;33718;50.910;-1.514;2023-12-14T03:58:30;12.05;;;2.90;;
47958;SDS011;33718;50.910;-1.514;2023-12-14T04:00:32;4.65;;;3.20;;
47958;SDS011;33718;50.910;-1.514;2023-12-14T04:02:33;8.90;;;2.55;;
47958;SDS011;33718;50.910;-1.514;2023-12-14T04:04:35;11.27;;;2.50;;
47958;SDS011;33718;50.910;-1.514;2023-12-14T04:06:37;10.07;;;2.80;;
47958;SDS011;33718;50.910;-1.514;2023-12-14T04:08:38;9.07;;;3.10;;
47958;SDS011;33718;50.910;-1.514;2023-12-14T04:10:40;10.02;;;2.47;;
47958;SDS011;33718;50.910;-1.514;2023-12-14T04:12:42;16.02;;;3.78;;
47958;SDS011;33718;50.910;-1.514;2023-12-14T04:15:02;6.10;;;2.15;;
47958;SDS011;33718;50.910;-1.514;2023-12-14T04:17:04;9.90;;;2.97;;
47958;SDS011;33718;50.910;-1.514;2023-12-14T04:19:06;12.63;;;2.72;;
47958;SDS011;33718;50.910;-1.514;2023-12-14T04:21:11;4.60;;;2.38;;
47958;SDS011;33718;50.910;-1.514;2023-12-14T04:23:13;7.70;;;2.83;;
47958;SDS011;33718;50.910;-1.514;2023-12-14T04:25:14;7.18;;;3.13;;
47958;SDS011;33718;50.910;-1.514;2023-12-14T04:27:35;6.82;;;2.20;;
47958;SDS011;33718;50.910;-1.514;2023-12-14T04:29:36;5.25;;;2.72;;
47958;SDS011;33718;50.910;-1.514;2023-12-14T04:31:38;14.98;;;2.28;;
47958;SDS011;33718;50.910;-1.514;2023-12-14T04:33:39;9.23;;;2.25;;
47958;SDS011;33718;50.910;-1.514;2023-12-14T04:35:42;5.28;;;2.45;;
47958;SDS011;33718;50.910;-1.514;2023-12-14T04:37:45;8.13;;;2.47;;
47958;SDS011;33718;50.910;-1.514;2023-12-14T04:39:47;13.63;;;3.67;;
47958;SDS011;33718;50.910;-1.514;2023-12-14T04:41:51;7.68;;;2.75;;
47958;SDS011;33718;50.910;-1.514;2023-12-14T04:43:57;4.50;;;2.70;;
47958;SDS011;33718;50.910;-1.514;2023-12-14T04:46:19;8.98;;;2.08;;
47958;SDS011;33718;50.910;-1.514;2023-12-14T04:48:23;8.57;;;2.78;;
47958;SDS011;33718;50.910;-1.514;2023-12-14T04:50:26;12.95;;;2.72;;
47958;SDS011;33718;50.910;-1.514;2023-12-14T04:52:49;13.10;;;2.03;;
47958;SDS011;33718;50.910;-1.514;2023-12-14T04:55:11;6.75;;;2.30;;
47958;SDS011;33718;50.910;-1.514;2023-12-14T04:57:33;7.93;;;2.38;;
47958;SDS011;33718;50.910;-1.514;2023-12-14T04:59:55;6.80;;;1.70;;
47958;SDS011;33718;50.910;-1.514;2023-12-14T05:02:18;5.47;;;1.98;;
47958;SDS011;33718;50.910;-1.514;2023-12-14T05:04:21;10.82;;;2.47;;
47958;SDS011;33718;50.910;-1.514;2023-12-14T05:06:25;8.32;;;2.58;;
47958;SDS011;33718;50.910;-1.514;2023-12-14T05:08:29;4.00;;;2.17;;
47958;SDS011;33718;50.910;-1.514;2023-12-14T05:10:51;9.18;;;2.60;;
47958;SDS011;33718;50.910;-1.514;2023-12-14T05:13:13;4.70;;;2.55;;
47958;SDS011;33718;50.910;-1.514;2023-12-14T05:15:17;11.05;;;2.90;;
47958;SDS011;33718;50.910;-1.514;2023-12-14T05:17:20;10.82;;;2.35;;
47958;SDS011;33718;50.910;-1.514;2023-12-14T05:19:42;9.63;;;2.63;;
47958;SDS011;33718;50.910;-1.514;2023-12-14T05:21:44;12.18;;;2.63;;
47958;SDS011;33718;50.910;-1.514;2023-12-14T05:23:45;8.32;;;2.65;;
47958;SDS011;33718;50.910;-1.514;2023-12-14T05:25:47;9.02;;;1.95;;
47958;SDS011;33718;50.910;-1.514;2023-12-14T05:27:49;12.68;;;2.13;;
47958;SDS011;33718;50.910;-1.514;2023-12-14T05:29:50;11.25;;;3.28;;
47958;SDS011;33718;50.910;-1.514;2023-12-14T05:31:52;6.32;;;2.20;;
47958;SDS011;33718;50.910;-1.514;2023-12-14T05:33:53;5.32;;;2.15;;
47958;SDS011;33718;50.910;-1.514;2023-12-14T05:35:55;6.80;;;2.65;;
47958;SDS011;33718;50.910;-1.514;2023-12-14T05:37:57;5.38;;;2.00;;
47958;SDS011;33718;50.910;-1.514;2023-12-14T05:39:58;9.85;;;2.47;;
47958;SDS011;33718;50.910;-1.514;2023-12-14T05:42:18;8.40;;;2.63;;
47958;SDS011;33718;50.910;-1.514;2023-12-14T05:44:38;9.13;;;2.28;;
47958;SDS011;33718;50.910;-1.514;2023-12-14T05:46:58;7.88;;;1.85;;
47958;SDS011;33718;50.910;-1.514;2023-12-14T05:49:18;8.73;;;3.08;;
47958;SDS011;33718;50.910;-1.514;2023-12-14T05:51:32;7.72;;;2.72;;
47958;SDS011;33718;50.910;-1.514;2023-12-14T05:53:34;5.40;;;2.78;;
47958;SDS011;33718;50.910;-1.514;2023-12-14T05:55:41;7.50;;;1.88;;
47958;SDS011;33718;50.910;-1.514;2023-12-14T05:57:43;8.48;;;2.47;;
47958;SDS011;33718;50.910;-1.514;2023-12-14T06:00:04;9.55;;;2.03;;
47958;SDS011;33718;50.910;-1.514;2023-12-14T06:02:07;8.30;;;2.50;;
47958;SDS011;33718;50.910;-1.514;2023-12-14T06:04:09;11.15;;;2.55;;
47958;SDS011;33718;50.910;-1.514;2023-12-14T06:06:10;5.97;;;2.30;;
47958;SDS011;33718;50.910;-1.514;2023-12-14T06:08:12;4.68;;;1.98;;
47958;SDS011;33718;50.910;-1.514;2023-12-14T06:10:14;4.47;;;1.80;;
47958;SDS011;33718;50.910;-1.514;2023-12-14T06:12:16;5.55;;;2.80;;
47958;SDS011;33718;50.910;-1.514;2023-12-14T06:14:17;6.15;;;2.28;;
47958;SDS011;33718;50.910;-1.514;2023-12-14T06:16:20;8.07;;;4.65;;
47958;SDS011;33718;50.910;-1.514;2023-12-14T06:18:21;11.82;;;2.88;;
47958;SDS011;33718;50.910;-1.514;2023-12-14T06:20:23;6.68;;;2.45;;
47958;SDS011;33718;50.910;-1.514;2023-12-14T06:22:25;4.43;;;2.10;;
47958;SDS011;33718;50.910;-1.514;2023-12-14T06:24:27;11.43;;;2.47;;
47958;SDS011;33718;50.910;-1.514;2023-12-14T06:26:29;9.77;;;2.58;;
47958;SDS011;33718;50.910;-1.514;2023-12-14T06:28:30;13.82;;;2.42;;
47958;SDS011;33718;50.910;-1.514;2023-12-14T06:30:32;8.85;;;2.47;;
47958;SDS011;33718;50.910;-1.514;2023-12-14T06:32:34;9.55;;;2.42;;
47958;SDS011;33718;50.910;-1.514;2023-12-14T06:34:36;7.00;;;2.20;;
47958;SDS011;33718;50.910;-1.514;2023-12-14T06:36:40;5.50;;;2.63;;
47958;SDS011;33718;50.910;-1.514;2023-12-14T06:39:01;7.10;;;2.17;;
47958;SDS011;33718;50.910;-1.514;2023-12-14T06:41:03;4.72;;;2.33;;
47958;SDS011;33718;50.910;-1.514;2023-12-14T06:43:04;7.53;;;2.00;;
47958;SDS011;33718;50.910;-1.514;2023-12-14T06:45:06;12.63;;;3.13;;
47958;SDS011;33718;50.910;-1.514;2023-12-14T06:47:08;8.38;;;2.30;;
47958;SDS011;33718;50.910;-1.514;2023-12-14T06:49:10;12.88;;;2.80;;
47958;SDS011;33718;50.910;-1.514;2023-12-14T06:51:12;7.10;;;2.53;;
47958;SDS011;33718;50.910;-1.514;2023-12-14T06:53:13;11.07;;;3.08;;
47958;SDS011;33718;50.910;-1.514;2023-12-14T06:55:17;8.38;;;2.53;;
47958;SDS011;33718;50.910;-1.514;2023-12-14T06:57:18;8.05;;;2.45;;
47958;SDS011;33718;50.910;-1.514;2023-12-14T06:59:20;14.20;;;2.35;;
47958;SDS011;33718;50.910;-1.514;2023-12-14T07:01:22;9.73;;;2.70;;
47958;SDS011;33718;50.910;-1.514;2023-12-14T07:03:23;11.15;;;2.15;;
47958;SDS011;33718;50.910;-1.514;2023-12-14T07:05:25;11.82;;;4.22;;
47958;SDS011;33718;50.910;-1.514;2023-12-14T07:07:27;6.15;;;2.40;;
47958;SDS011;33718;50.910;-1.514;2023-12-14T07:09:28;7.88;;;2.22;;
47958;SDS011;33718;50.910;-1.514;2023-12-14T07:11:30;10.00;;;2.30;;
47958;SDS011;33718;50.910;-1.514;2023-12-14T07:13:32;7.55;;;2.92;;
47958;SDS011;33718;50.910;-1.514;2023-12-14T07:15:52;7.63;;;2.10;;
47958;SDS011;33718;50.910;-1.514;2023-12-14T07:17:53;7.95;;;2.22;;
47958;SDS011;33718;50.910;-1.514;2023-12-14T07:19:55;6.97;;;2.53;;
47958;SDS011;33718;50.910;-1.514;2023-12-14T07:22:00;9.65;;;2.97;;
47958;SDS011;33718;50.910;-1.514;2023-12-14T07:24:02;8.50;;;2.38;;
47958;SDS011;33718;50.910;-1.514;2023-12-14T07:26:04;10.68;;;2.58;;
47958;SDS011;33718;50.910;-1.514;2023-12-14T07:28:08;13.45;;;2.95;;
47958;SDS011;33718;50.910;-1.514;2023-12-14T07:30:10;8.68;;;2.75;;
47958;SDS011;33718;50.910;-1.514;2023-12-14T07:32:12;10.93;;;2.67;;
47958;SDS011;33718;50.910;-1.514;2023-12-14T07:34:14;8.65;;;2.75;;
47958;SDS011;33718;50.910;-1.514;2023-12-14T07:36:15;7.45;;;3.17;;
47958;SDS011;33718;50.910;-1.514;2023-12-14T07:38:17;13.20;;;2.90;;
47958;SDS011;33718;50.910;-1.514;2023-12-14T07:40:19;7.50;;;2.85;;
47958;SDS011;33718;50.910;-1.514;2023-12-14T07:42:20;10.57;;;2.80;;
47958;SDS011;33718;50.910;-1.514;2023-12-14T07:44:22;10.05;;;2.75;;
47958;SDS011;33718;50.910;-1.514;2023-12-14T07:46:24;11.70;;;2.55;;
47958;SDS011;33718;50.910;-1.514;2023-12-14T07:50:50;8.10;;;2.47;;
47958;SDS011;33718;50.910;-1.514;2023-12-14T07:52:54;9.90;;;3.50;;
47958;SDS011;33718;50.910;-1.514;2023-12-14T07:54:59;8.65;;;2.50;;
47958;SDS011;33718;50.910;-1.514;2023-12-14T07:57:02;8.90;;;2.85;;
47958;SDS011;33718;50.910;-1.514;2023-12-14T07:59:06;7.72;;;2.67;;
47958;SDS011;33718;50.910;-1.514;2023-12-14T08:01:10;9.63;;;2.58;;
47958;SDS011;33718;50.910;-1.514;2023-12-14T08:03:15;10.90;;;2.35;;
47958;SDS011;33718;50.910;-1.514;2023-12-14T08:07:23;14.60;;;4.88;;
47958;SDS011;33718;50.910;-1.514;2023-12-14T08:09:32;11.45;;;2.95;;
47958;SDS011;33718;50.910;-1.514;2023-12-14T08:11:55;7.45;;;2.30;;
47958;SDS011;33718;50.910;-1.514;2023-12-14T08:13:59;6.13;;;3.30;;
47958;SDS011;33718;50.910;-1.514;2023-12-14T08:16:04;9.05;;;2.80;;
47958;SDS011;33718;50.910;-1.514;2023-12-14T08:18:09;10.02;;;3.10;;
47958;SDS011;33718;50.910;-1.514;2023-12-14T08:20:12;9.25;;;4.00;;
47958;SDS011;33718;50.910;-1.514;2023-12-14T08:22:15;17.00;;;3.75;;
47958;SDS011;33718;50.910;-1.514;2023-12-14T08:24:19;6.38;;;3.40;;
47958;SDS011;33718;50.910;-1.514;2023-12-14T08:26:23;11.88;;;4.03;;
47958;SDS011;33718;50.910;-1.514;2023-12-14T08:28:26;11.18;;;3.13;;
47958;SDS011;33718;50.910;-1.514;2023-12-14T08:30:28;13.30;;;3.40;;
47958;SDS011;33718;50.910;-1.514;2023-12-14T08:32:29;5.63;;;3.42;;
47958;SDS011;33718;50.910;-1.514;2023-12-14T08:34:31;12.35;;;3.35;;
47958;SDS011;33718;50.910;-1.514;2023-12-14T08:36:33;12.52;;;3.60;;
47958;SDS011;33718;50.910;-1.514;2023-12-14T08:38:34;17.35;;;4.15;;
47958;SDS011;33718;50.910;-1.514;2023-12-14T08:40:36;8.88;;;3.38;;
47958;SDS011;33718;50.910;-1.514;2023-12-14T08:42:38;11.90;;;3.83;;
47958;SDS011;33718;50.910;-1.514;2023-12-14T08:44:40;13.25;;;4.88;;
47958;SDS011;33718;50.910;-1.514;2023-12-14T08:46:42;10.70;;;3.60;;
47958;SDS011;33718;50.910;-1.514;2023-12-14T08:48:44;16.23;;;4.22;;
47958;SDS011;33718;50.910;-1.514;2023-12-14T08:50:46;15.68;;;4.60;;
47958;SDS011;33718;50.910;-1.514;2023-12-14T08:52:48;18.02;;;4.25;;
47958;SDS011;33718;50.910;-1.514;2023-12-14T08:54:49;10.10;;;3.72;;
47958;SDS011;33718;50.910;-1.514;2023-12-14T08:56:51;18.55;;;3.65;;
47958;SDS011;33718;50.910;-1.514;2023-12-14T08:59:12;15.07;;;4.18;;
47958;SDS011;33718;50.910;-1.514;2023-12-14T09:01:32;13.20;;;3.20;;
47958;SDS011;33718;50.910;-1.514;2023-12-14T09:03:52;12.00;;;3.17;;
47958;SDS011;33718;50.910;-1.514;2023-12-14T09:05:54;15.05;;;3.65;;
47958;SDS011;33718;50.910;-1.514;2023-12-14T09:07:56;11.80;;;3.83;;
47958;SDS011;33718;50.910;-1.514;2023-12-14T09:10:00;14.43;;;3.67;;
47958;SDS011;33718;50.910;-1.514;2023-12-14T09:12:02;11.02;;;2.90;;
47958;SDS011;33718;50.910;-1.514;2023-12-14T09:14:04;10.63;;;3.70;;
47958;SDS011;33718;50.910;-1.514;2023-12-14T09:16:05;19.02;;;4.05;;
47958;SDS011;33718;50.910;-1.514;2023-12-14T09:18:26;7.15;;;3.30;;
47958;SDS011;33718;50.910;-1.514;2023-12-14T09:20:27;9.43;;;3.50;;
47958;SDS011;33718;50.910;-1.514;2023-12-14T09:22:29;11.35;;;3.45;;
47958;SDS011;33718;50.910;-1.514;2023-12-14T09:24:31;8.27;;;3.50;;
47958;SDS011;33718;50.910;-1.514;2023-12-14T09:26:33;14.88;;;3.47;;
47958;SDS011;33718;50.910;-1.514;2023-12-14T09:28:34;13.60;;;4.13;;
47958;SDS011;33718;50.910;-1.514;2023-12-14T09:30:54;13.25;;;3.25;;
47958;SDS011;33718;50.910;-1.514;2023-12-14T09:33:15;11.10;;;3.40;;
47958;SDS011;33718;50.910;-1.514;2023-12-14T09:35:36;6.40;;;2.83;;
47958;SDS011;33718;50.910;-1.514;2023-12-14T09:37:40;8.32;;;3.30;;
47958;SDS011;33718;50.910;-1.514;2023-12-14T09:39:42;11.13;;;3.35;;
47958;SDS011;33718;50.910;-1.514;2023-12-14T09:41:44;12.38;;;4.05;;
47958;SDS011;33718;50.910;-1.514;2023-12-14T09:43:47;13.82;;;3.17;;
47958;SDS011;33718;50.910;-1.514;2023-12-14T09:45:49;10.10;;;3.67;;
47958;SDS011;33718;50.910;-1.514;2023-12-14T09:47:50;11.98;;;2.85;;
47958;SDS011;33718;50.910;-1.514;2023-12-14T09:49:52;12.95;;;4.53;;
47958;SDS011;33718;50.910;-1.514;2023-12-14T09:51:55;18.95;;;5.15;;
47958;SDS011;33718;50.910;-1.514;2023-12-14T09:53:56;14.95;;;3.95;;
47958;SDS011;33718;50.910;-1.514;2023-12-14T09:56:01;8.77;;;3.92;;
47958;SDS011;33718;50.910;-1.514;2023-12-14T09:58:03;9.52;;;4.72;;
47958;SDS011;33718;50.910;-1.514;2023-12-14T10:00:05;8.50;;;3.72;;
47958;SDS011;33718;50.910;-1.514;2023-12-14T10:02:11;9.32;;;4.10;;
47958;SDS011;33718;50.910;-1.514;2023-12-14T10:04:14;16.98;;;4.80;;
47958;SDS011;33718;50.910;-1.514;2023-12-14T10:06:17;8.13;;;4.25;;
47958;SDS011;33718;50.910;-1.514;2023-12-14T10:08:19;11.38;;;4.50;;
47958;SDS011;33718;50.910;-1.514;2023-12-14T10:10:21;13.38;;;3.50;;
47958;SDS011;33718;50.910;-1.514;2023-12-14T10:12:22;10.57;;;3.58;;
47958;SDS011;33718;50.910;-1.514;2023-12-14T10:14:25;10.00;;;3.67;;
47958;SDS011;33718;50.910;-1.514;2023-12-14T10:16:31;13.38;;;3.45;;
47958;SDS011;33718;50.910;-1.514;2023-12-14T10:18:33;11.45;;;3.50;;
47958;SDS011;33718;50.910;-1.514;2023-12-14T10:20:38;17.70;;;3.25;;
47958;SDS011;33718;50.910;-1.514;2023-12-14T10:22:42;9.73;;;3.53;;
47958;SDS011;33718;50.910;-1.514;2023-12-14T10:24:48;9.68;;;2.10;;
47958;SDS011;33718;50.910;-1.514;2023-12-14T10:26:49;7.43;;;2.45;;
47958;SDS011;33718;50.910;-1.514;2023-12-14T10:28:52;9.45;;;2.55;;
47958;SDS011;33718;50.910;-1.514;2023-12-14T10:30:54;12.10;;;2.70;;
47958;SDS011;33718;50.910;-1.514;2023-12-14T10:32:56;10.65;;;2.40;;
47958;SDS011;33718;50.910;-1.514;2023-12-14T10:34:57;9.70;;;3.17;;
47958;SDS011;33718;50.910;-1.514;2023-12-14T10:36:59;9.68;;;2.42;;
47958;SDS011;33718;50.910;-1.514;2023-12-14T10:39:06;8.55;;;2.88;;
47958;SDS011;33718;50.910;-1.514;2023-12-14T10:41:28;8.32;;;3.05;;
47958;SDS011;33718;50.910;-1.514;2023-12-14T10:43:31;6.53;;;2.83;;
47958;SDS011;33718;50.910;-1.514;2023-12-14T10:45:50;7.95;;;2.00;;
47958;SDS011;33718;50.910;-1.514;2023-12-14T10:47:52;15.77;;;2.92;;
47958;SDS011;33718;50.910;-1.514;2023-12-14T10:49:55;5.28;;;1.70;;
47958;SDS011;33718;50.910;-1.514;2023-12-14T10:51:58;7.93;;;2.42;;
47958;SDS011;33718;50.910;-1.514;2023-12-14T10:54:02;9.05;;;1.80;;
47958;SDS011;33718;50.910;-1.514;2023-12-14T10:56:05;11.15;;;2.65;;
47958;SDS011;33718;50.910;-1.514;2023-12-14T10:58:11;12.10;;;2.47;;
47958;SDS011;33718;50.910;-1.514;2023-12-14T11:00:15;14.38;;;2.35;;
47958;SDS011;33718;50.910;-1.514;2023-12-14T11:02:20;7.05;;;2.03;;
47958;SDS011;33718;50.910;-1.514;2023-12-14T11:04:23;7.65;;;1.77;;
47958;SDS011;33718;50.910;-1.514;2023-12-14T11:08:52;8.70;;;1.77;;
47958;SDS011;33718;50.910;-1.514;2023-12-14T11:11:01;7.20;;;1.98;;
47958;SDS011;33718;50.910;-1.514;2023-12-14T11:13:13;10.20;;;2.13;;
47958;SDS011;33718;50.910;-1.514;2023-12-14T11:15:18;10.68;;;1.33;;
47958;SDS011;33718;50.910;-1.514;2023-12-14T11:19:25;8.45;;;1.10;;
47958;SDS011;33718;50.910;-1.514;2023-12-14T11:21:29;11.05;;;1.38;;
47958;SDS011;33718;50.910;-1.514;2023-12-14T11:23:33;5.95;;;2.00;;
47958;SDS011;33718;50.910;-1.514;2023-12-14T11:25:37;9.13;;;2.45;;
47958;SDS011;33718;50.910;-1.514;2023-12-14T11:27:48;12.40;;;1.83;;
47958;SDS011;33718;50.910;-1.514;2023-12-14T11:29:52;10.85;;;2.03;;
47958;SDS011;33718;50.910;-1.514;2023-12-14T11:33:58;8.32;;;1.45;;
47958;SDS011;33718;50.910;-1.514;2023-12-14T11:36:02;15.15;;;1.55;;
47958;SDS011;33718;50.910;-1.514;2023-12-14T11:38:07;8.30;;;2.03;;
47958;SDS011;33718;50.910;-1.514;2023-12-14T11:40:14;11.27;;;1.77;;
47958;SDS011;33718;50.910;-1.514;2023-12-14T11:42:17;12.25;;;2.20;;
47958;SDS011;33718;50.910;-1.514;2023-12-14T11:44:22;11.85;;;2.17;;
47958;SDS011;33718;50.910;-1.514;2023-12-14T11:46:43;13.50;;;2.67;;
47958;SDS011;33718;50.910;-1.514;2023-12-14T11:48:45;6.43;;;1.25;;
47958;SDS011;33718;50.910;-1.514;2023-12-14T11:50:47;14.75;;;1.85;;
47958;SDS011;33718;50.910;-1.514;2023-12-14T11:52:49;6.10;;;2.92;;
47958;SDS011;33718;50.910;-1.514;2023-12-14T11:55:10;9.73;;;1.90;;
47958;SDS011;33718;50.910;-1.514;2023-12-14T11:57:30;5.57;;;1.33;;
47958;SDS011;33718;50.910;-1.514;2023-12-14T11:59:32;5.63;;;1.35;;
47958;SDS011;33718;50.910;-1.514;2023-12-14T12:01:59;5.75;;;1.63;;
47958;SDS011;33718;50.910;-1.514;2023-12-14T12:04:09;3.50;;;1.00;;
47958;SDS011;33718;50.910;-1.514;2023-12-14T12:06:25;6.93;;;1.02;;
47958;SDS011;33718;50.910;-1.514;2023-12-14T12:08:26;3.67;;;0.93;;
47958;SDS011;33718;50.910;-1.514;2023-12-14T12:10:28;3.40;;;1.08;;
47958;SDS011;33718;50.910;-1.514;2023-12-14T12:12:30;7.13;;;1.35;;
47958;SDS011;33718;50.910;-1.514;2023-12-14T12:14:35;5.63;;;1.30;;
47958;SDS011;33718;50.910;-1.514;2023-12-14T12:16:37;6.80;;;1.35;;
47958;SDS011;33718;50.910;-1.514;2023-12-14T12:18:38;8.02;;;1.10;;
47958;SDS011;33718;50.910;-1.514;2023-12-14T12:20:41;12.82;;;2.50;;
47958;SDS011;33718;50.910;-1.514;2023-12-14T12:22:43;4.70;;;0.90;;
47958;SDS011;33718;50.910;-1.514;2023-12-14T12:24:45;10.70;;;1.20;;
47958;SDS011;33718;50.910;-1.514;2023-12-14T12:26:49;7.10;;;1.25;;
47958;SDS011;33718;50.910;-1.514;2023-12-14T12:28:51;7.47;;;1.15;;
47958;SDS011;33718;50.910;-1.514;2023-12-14T12:31:12;8.57;;;1.08;;
47958;SDS011;33718;50.910;-1.514;2023-12-14T12:33:14;9.68;;;1.00;;